sensor_id;sensor_type;location;lat;lon;timestamp;P1;durP1;ratioP1;P2;durP2;ratioP2
42978;SDS011;28616;44.746;19.678;2023-08-06T00:00:40;5.25;;;3.70;;
42978;SDS011;28616;44.746;19.678;2023-08-06T00:03:06;6.47;;;3.97;;
42978;SDS011;28616;44.746;19.678;2023-08-06T00:05:32;7.75;;;3.83;;
42978;SDS011;28616;44.746;19.678;2023-08-06T00:07:58;7.00;;;3.60;;
42978;SDS011;28616;44.746;19.678;2023-08-06T00:10:23;5.32;;;3.95;;
42978;SDS011;28616;44.746;19.678;2023-08-06T00:12:49;6.68;;;3.95;;
42978;SDS011;28616;44.746;19.678;2023-08-06T00:15:15;4.85;;;3.40;;
42978;SDS011;28616;44.746;19.678;2023-08-06T00:17:41;5.82;;;3.70;;
42978;SDS011;28616;44.746;19.678;2023-08-06T00:20:07;6.63;;;3.53;;
42978;SDS011;28616;44.746;19.678;2023-08-06T00:22:33;6.13;;;3.85;;
42978;SDS011;28616;44.746;19.678;2023-08-06T00:25:00;7.22;;;3.78;;
42978;SDS011;28616;44.746;19.678;2023-08-06T00:27:26;6.13;;;3.83;;
42978;SDS011;28616;44.746;19.678;2023-08-06T00:29:52;4.32;;;3.40;;
42978;SDS011;28616;44.746;19.678;2023-08-06T00:32:18;6.80;;;3.40;;
42978;SDS011;28616;44.746;19.678;2023-08-06T00:34:44;4.75;;;3.42;;
42978;SDS011;28616;44.746;19.678;2023-08-06T00:37:10;4.72;;;3.40;;
42978;SDS011;28616;44.746;19.678;2023-08-06T00:39:35;7.03;;;3.28;;
42978;SDS011;28616;44.746;19.678;2023-08-06T00:42:01;5.30;;;3.47;;
42978;SDS011;28616;44.746;19.678;2023-08-06T00:44:27;6.53;;;3.25;;
42978;SDS011;28616;44.746;19.678;2023-08-06T00:46:53;5.82;;;4.07;;
42978;SDS011;28616;44.746;19.678;2023-08-06T00:49:19;6.68;;;3.70;;
42978;SDS011;28616;44.746;19.678;2023-08-06T00:51:44;5.32;;;3.42;;
42978;SDS011;28616;44.746;19.678;2023-08-06T00:54:10;7.32;;;3.65;;
42978;SDS011;28616;44.746;19.678;2023-08-06T00:56:36;5.47;;;3.80;;
42978;SDS011;28616;44.746;19.678;2023-08-06T00:59:03;6.13;;;3.92;;
42978;SDS011;28616;44.746;19.678;2023-08-06T01:01:30;5.10;;;3.50;;
42978;SDS011;28616;44.746;19.678;2023-08-06T01:03:56;5.07;;;3.60;;
42978;SDS011;28616;44.746;19.678;2023-08-06T01:06:23;6.80;;;4.53;;
42978;SDS011;28616;44.746;19.678;2023-08-06T01:15:00;7.15;;;5.35;;
42978;SDS011;28616;44.746;19.678;2023-08-06T01:17:40;13.07;;;5.50;;
42978;SDS011;28616;44.746;19.678;2023-08-06T01:20:06;9.05;;;6.47;;
42978;SDS011;28616;44.746;19.678;2023-08-06T01:22:33;11.50;;;7.75;;
42978;SDS011;28616;44.746;19.678;2023-08-06T01:24:58;9.77;;;7.68;;
42978;SDS011;28616;44.746;19.678;2023-08-06T01:27:33;14.82;;;7.88;;
42978;SDS011;28616;44.746;19.678;2023-08-06T01:30:19;11.15;;;7.40;;
42978;SDS011;28616;44.746;19.678;2023-08-06T01:32:56;9.77;;;7.10;;
42978;SDS011;28616;44.746;19.678;2023-08-06T01:35:25;13.77;;;7.68;;
42978;SDS011;28616;44.746;19.678;2023-08-06T01:37:54;11.23;;;7.57;;
42978;SDS011;28616;44.746;19.678;2023-08-06T01:40:21;15.07;;;8.57;;
42978;SDS011;28616;44.746;19.678;2023-08-06T01:42:47;11.60;;;7.22;;
42978;SDS011;28616;44.746;19.678;2023-08-06T01:45:13;13.25;;;8.80;;
42978;SDS011;28616;44.746;19.678;2023-08-06T01:47:39;10.32;;;6.93;;
42978;SDS011;28616;44.746;19.678;2023-08-06T01:50:05;13.27;;;7.70;;
42978;SDS011;28616;44.746;19.678;2023-08-06T01:52:31;10.30;;;7.13;;
42978;SDS011;28616;44.746;19.678;2023-08-06T01:54:57;10.00;;;7.00;;
42978;SDS011;28616;44.746;19.678;2023-08-06T01:57:22;11.35;;;7.47;;
42978;SDS011;28616;44.746;19.678;2023-08-06T01:59:48;11.50;;;7.45;;
42978;SDS011;28616;44.746;19.678;2023-08-06T02:02:14;10.95;;;7.05;;
42978;SDS011;28616;44.746;19.678;2023-08-06T02:04:40;13.85;;;9.25;;
42978;SDS011;28616;44.746;19.678;2023-08-06T02:07:05;10.32;;;7.35;;
42978;SDS011;28616;44.746;19.678;2023-08-06T02:09:31;14.02;;;8.45;;
42978;SDS011;28616;44.746;19.678;2023-08-06T02:11:57;8.82;;;7.10;;
42978;SDS011;28616;44.746;19.678;2023-08-06T02:14:23;8.98;;;6.45;;
42978;SDS011;28616;44.746;19.678;2023-08-06T02:16:48;8.68;;;7.20;;
42978;SDS011;28616;44.746;19.678;2023-08-06T02:19:15;9.85;;;7.75;;
42978;SDS011;28616;44.746;19.678;2023-08-06T02:21:41;9.07;;;7.47;;
42978;SDS011;28616;44.746;19.678;2023-08-06T02:24:06;14.38;;;7.38;;
42978;SDS011;28616;44.746;19.678;2023-08-06T02:26:32;9.63;;;7.07;;
42978;SDS011;28616;44.746;19.678;2023-08-06T02:28:58;11.18;;;6.90;;
42978;SDS011;28616;44.746;19.678;2023-08-06T02:31:23;11.27;;;6.93;;
42978;SDS011;28616;44.746;19.678;2023-08-06T02:33:49;9.18;;;6.75;;
42978;SDS011;28616;44.746;19.678;2023-08-06T02:36:15;11.32;;;7.60;;
42978;SDS011;28616;44.746;19.678;2023-08-06T02:38:40;9.38;;;6.97;;
42978;SDS011;28616;44.746;19.678;2023-08-06T02:41:06;9.15;;;6.65;;
42978;SDS011;28616;44.746;19.678;2023-08-06T02:43:32;7.85;;;6.18;;
42978;SDS011;28616;44.746;19.678;2023-08-06T02:45:58;13.32;;;8.43;;
42978;SDS011;28616;44.746;19.678;2023-08-06T02:48:25;8.05;;;6.85;;
42978;SDS011;28616;44.746;19.678;2023-08-06T02:50:51;8.30;;;6.50;;
42978;SDS011;28616;44.746;19.678;2023-08-06T02:53:16;10.52;;;7.10;;
42978;SDS011;28616;44.746;19.678;2023-08-06T02:55:46;10.45;;;7.05;;
42978;SDS011;28616;44.746;19.678;2023-08-06T02:58:15;9.52;;;7.60;;
42978;SDS011;28616;44.746;19.678;2023-08-06T03:00:42;10.38;;;7.60;;
42978;SDS011;28616;44.746;19.678;2023-08-06T03:03:11;9.07;;;7.10;;
42978;SDS011;28616;44.746;19.678;2023-08-06T03:05:36;14.05;;;9.57;;
42978;SDS011;28616;44.746;19.678;2023-08-06T03:08:02;15.45;;;10.40;;
42978;SDS011;28616;44.746;19.678;2023-08-06T03:10:28;17.52;;;10.45;;
42978;SDS011;28616;44.746;19.678;2023-08-06T03:12:54;13.98;;;9.77;;
42978;SDS011;28616;44.746;19.678;2023-08-06T03:15:19;12.65;;;9.40;;
42978;SDS011;28616;44.746;19.678;2023-08-06T03:17:45;14.65;;;8.50;;
42978;SDS011;28616;44.746;19.678;2023-08-06T03:20:11;15.40;;;8.45;;
42978;SDS011;28616;44.746;19.678;2023-08-06T03:22:36;11.70;;;8.27;;
42978;SDS011;28616;44.746;19.678;2023-08-06T03:25:02;14.02;;;8.95;;
42978;SDS011;28616;44.746;19.678;2023-08-06T03:27:29;13.45;;;9.07;;
42978;SDS011;28616;44.746;19.678;2023-08-06T03:29:54;11.20;;;8.88;;
42978;SDS011;28616;44.746;19.678;2023-08-06T03:32:20;16.75;;;8.38;;
42978;SDS011;28616;44.746;19.678;2023-08-06T03:34:46;12.70;;;8.98;;
42978;SDS011;28616;44.746;19.678;2023-08-06T03:37:12;13.50;;;9.10;;
42978;SDS011;28616;44.746;19.678;2023-08-06T03:39:37;13.85;;;8.80;;
42978;SDS011;28616;44.746;19.678;2023-08-06T03:42:03;11.32;;;9.20;;
42978;SDS011;28616;44.746;19.678;2023-08-06T03:44:29;12.32;;;9.48;;
42978;SDS011;28616;44.746;19.678;2023-08-06T03:46:56;12.43;;;9.73;;
42978;SDS011;28616;44.746;19.678;2023-08-06T03:49:21;15.52;;;10.65;;
42978;SDS011;28616;44.746;19.678;2023-08-06T03:51:47;13.60;;;10.50;;
42978;SDS011;28616;44.746;19.678;2023-08-06T03:54:13;14.50;;;10.40;;
42978;SDS011;28616;44.746;19.678;2023-08-06T03:56:38;14.70;;;10.18;;
42978;SDS011;28616;44.746;19.678;2023-08-06T03:59:04;14.00;;;10.77;;
42978;SDS011;28616;44.746;19.678;2023-08-06T04:01:30;19.70;;;10.80;;
42978;SDS011;28616;44.746;19.678;2023-08-06T04:03:56;16.45;;;12.10;;
42978;SDS011;28616;44.746;19.678;2023-08-06T04:06:21;19.80;;;11.77;;
42978;SDS011;28616;44.746;19.678;2023-08-06T04:08:47;16.13;;;11.88;;
42978;SDS011;28616;44.746;19.678;2023-08-06T04:11:13;18.27;;;12.82;;
42978;SDS011;28616;44.746;19.678;2023-08-06T04:13:41;19.92;;;13.32;;
42978;SDS011;28616;44.746;19.678;2023-08-06T04:16:08;19.00;;;13.25;;
42978;SDS011;28616;44.746;19.678;2023-08-06T04:18:33;26.92;;;13.77;;
42978;SDS011;28616;44.746;19.678;2023-08-06T04:20:59;19.67;;;14.13;;
42978;SDS011;28616;44.746;19.678;2023-08-06T04:23:27;18.55;;;13.43;;
42978;SDS011;28616;44.746;19.678;2023-08-06T04:25:55;18.20;;;13.98;;
42978;SDS011;28616;44.746;19.678;2023-08-06T04:28:22;19.63;;;13.13;;
42978;SDS011;28616;44.746;19.678;2023-08-06T04:30:48;19.42;;;13.25;;
42978;SDS011;28616;44.746;19.678;2023-08-06T04:33:14;22.70;;;13.52;;
42978;SDS011;28616;44.746;19.678;2023-08-06T04:35:39;20.70;;;10.43;;
42978;SDS011;28616;44.746;19.678;2023-08-06T04:38:05;11.88;;;8.88;;
42978;SDS011;28616;44.746;19.678;2023-08-06T04:40:33;13.05;;;7.60;;
42978;SDS011;28616;44.746;19.678;2023-08-06T04:43:00;10.38;;;7.30;;
42978;SDS011;28616;44.746;19.678;2023-08-06T04:45:26;14.38;;;6.60;;
42978;SDS011;28616;44.746;19.678;2023-08-06T04:47:52;8.30;;;5.93;;
42978;SDS011;28616;44.746;19.678;2023-08-06T04:50:18;9.32;;;5.55;;
42978;SDS011;28616;44.746;19.678;2023-08-06T04:52:45;9.70;;;5.68;;
42978;SDS011;28616;44.746;19.678;2023-08-06T04:55:10;8.35;;;4.65;;
42978;SDS011;28616;44.746;19.678;2023-08-06T04:57:36;6.97;;;4.75;;
42978;SDS011;28616;44.746;19.678;2023-08-06T05:00:02;9.73;;;5.28;;
42978;SDS011;28616;44.746;19.678;2023-08-06T05:02:29;6.78;;;4.63;;
42978;SDS011;28616;44.746;19.678;2023-08-06T05:04:57;6.90;;;4.88;;
42978;SDS011;28616;44.746;19.678;2023-08-06T05:07:23;7.53;;;3.85;;
42978;SDS011;28616;44.746;19.678;2023-08-06T05:09:49;6.75;;;3.78;;
42978;SDS011;28616;44.746;19.678;2023-08-06T05:12:14;6.30;;;3.95;;
42978;SDS011;28616;44.746;19.678;2023-08-06T05:14:40;6.03;;;3.85;;
42978;SDS011;28616;44.746;19.678;2023-08-06T05:17:06;5.10;;;3.35;;
42978;SDS011;28616;44.746;19.678;2023-08-06T05:19:32;4.72;;;3.50;;
42978;SDS011;28616;44.746;19.678;2023-08-06T05:21:57;5.40;;;3.50;;
42978;SDS011;28616;44.746;19.678;2023-08-06T05:24:23;5.18;;;2.80;;
42978;SDS011;28616;44.746;19.678;2023-08-06T05:26:49;4.78;;;2.70;;
42978;SDS011;28616;44.746;19.678;2023-08-06T05:29:16;8.50;;;3.05;;
42978;SDS011;28616;44.746;19.678;2023-08-06T05:31:42;4.43;;;2.83;;
42978;SDS011;28616;44.746;19.678;2023-08-06T05:34:08;4.45;;;2.53;;
42978;SDS011;28616;44.746;19.678;2023-08-06T05:36:34;8.80;;;2.45;;
42978;SDS011;28616;44.746;19.678;2023-08-06T05:38:59;4.30;;;2.50;;
42978;SDS011;28616;44.746;19.678;2023-08-06T05:41:25;6.47;;;2.50;;
42978;SDS011;28616;44.746;19.678;2023-08-06T05:43:51;4.60;;;2.47;;
42978;SDS011;28616;44.746;19.678;2023-08-06T05:46:17;6.30;;;3.00;;
42978;SDS011;28616;44.746;19.678;2023-08-06T05:48:42;5.72;;;2.97;;
42978;SDS011;28616;44.746;19.678;2023-08-06T05:51:08;3.60;;;2.53;;
42978;SDS011;28616;44.746;19.678;2023-08-06T05:53:34;4.60;;;2.67;;
42978;SDS011;28616;44.746;19.678;2023-08-06T05:55:59;8.27;;;2.70;;
42978;SDS011;28616;44.746;19.678;2023-08-06T05:58:25;4.13;;;2.10;;
42978;SDS011;28616;44.746;19.678;2023-08-06T06:00:54;8.60;;;2.20;;
42978;SDS011;28616;44.746;19.678;2023-08-06T06:03:19;3.78;;;1.50;;
42978;SDS011;28616;44.746;19.678;2023-08-06T06:05:45;2.50;;;1.70;;
42978;SDS011;28616;44.746;19.678;2023-08-06T06:08:11;3.80;;;1.80;;
42978;SDS011;28616;44.746;19.678;2023-08-06T06:13:11;2.50;;;1.40;;
42978;SDS011;28616;44.746;19.678;2023-08-06T06:15:37;2.38;;;1.30;;
42978;SDS011;28616;44.746;19.678;2023-08-06T06:18:03;1.75;;;1.08;;
42978;SDS011;28616;44.746;19.678;2023-08-06T06:20:29;1.63;;;1.10;;
42978;SDS011;28616;44.746;19.678;2023-08-06T06:22:56;1.50;;;1.00;;
42978;SDS011;28616;44.746;19.678;2023-08-06T06:25:22;4.07;;;0.90;;
42978;SDS011;28616;44.746;19.678;2023-08-06T06:27:48;1.63;;;1.10;;
42978;SDS011;28616;44.746;19.678;2023-08-06T06:30:15;1.85;;;0.90;;
42978;SDS011;28616;44.746;19.678;2023-08-06T06:32:41;3.35;;;1.00;;
42978;SDS011;28616;44.746;19.678;2023-08-06T06:35:06;3.03;;;0.80;;
42978;SDS011;28616;44.746;19.678;2023-08-06T06:37:33;1.27;;;0.80;;
42978;SDS011;28616;44.746;19.678;2023-08-06T06:39:58;2.13;;;0.88;;
42978;SDS011;28616;44.746;19.678;2023-08-06T06:42:24;1.17;;;0.60;;
42978;SDS011;28616;44.746;19.678;2023-08-06T06:44:50;2.25;;;0.73;;
42978;SDS011;28616;44.746;19.678;2023-08-06T06:47:16;2.28;;;0.60;;
42978;SDS011;28616;44.746;19.678;2023-08-06T06:49:42;1.40;;;0.60;;
42978;SDS011;28616;44.746;19.678;2023-08-06T06:52:07;0.88;;;0.60;;
42978;SDS011;28616;44.746;19.678;2023-08-06T06:54:33;1.15;;;0.70;;
42978;SDS011;28616;44.746;19.678;2023-08-06T06:56:59;4.68;;;0.80;;
42978;SDS011;28616;44.746;19.678;2023-08-06T06:59:25;3.47;;;0.65;;
42978;SDS011;28616;44.746;19.678;2023-08-06T07:01:51;3.50;;;0.77;;
42978;SDS011;28616;44.746;19.678;2023-08-06T07:04:16;2.13;;;0.80;;
42978;SDS011;28616;44.746;19.678;2023-08-06T07:06:42;1.38;;;0.93;;
42978;SDS011;28616;44.746;19.678;2023-08-06T07:09:08;1.75;;;0.85;;
42978;SDS011;28616;44.746;19.678;2023-08-06T07:11:34;2.00;;;0.75;;
42978;SDS011;28616;44.746;19.678;2023-08-06T07:14:00;1.92;;;0.80;;
42978;SDS011;28616;44.746;19.678;2023-08-06T07:16:26;2.42;;;0.70;;
42978;SDS011;28616;44.746;19.678;2023-08-06T07:18:53;1.27;;;0.73;;
42978;SDS011;28616;44.746;19.678;2023-08-06T07:21:19;0.98;;;0.70;;
42978;SDS011;28616;44.746;19.678;2023-08-06T07:26:17;0.93;;;0.70;;
42978;SDS011;28616;44.746;19.678;2023-08-06T07:28:42;5.22;;;0.73;;
42978;SDS011;28616;44.746;19.678;2023-08-06T07:31:09;1.75;;;0.82;;
42978;SDS011;28616;44.746;19.678;2023-08-06T07:33:35;4.50;;;0.98;;
42978;SDS011;28616;44.746;19.678;2023-08-06T07:36:07;1.92;;;0.98;;
42978;SDS011;28616;44.746;19.678;2023-08-06T07:38:34;1.30;;;0.88;;
42978;SDS011;28616;44.746;19.678;2023-08-06T07:41:01;1.77;;;0.77;;
42978;SDS011;28616;44.746;19.678;2023-08-06T07:43:27;1.38;;;0.70;;
42978;SDS011;28616;44.746;19.678;2023-08-06T07:45:53;1.00;;;0.57;;
42978;SDS011;28616;44.746;19.678;2023-08-06T07:48:19;0.85;;;0.60;;
42978;SDS011;28616;44.746;19.678;2023-08-06T07:50:46;1.05;;;0.70;;
42978;SDS011;28616;44.746;19.678;2023-08-06T07:53:15;1.45;;;0.77;;
42978;SDS011;28616;44.746;19.678;2023-08-06T07:55:41;1.92;;;0.70;;
42978;SDS011;28616;44.746;19.678;2023-08-06T07:58:07;1.80;;;0.68;;
42978;SDS011;28616;44.746;19.678;2023-08-06T08:00:34;1.13;;;0.50;;
42978;SDS011;28616;44.746;19.678;2023-08-06T08:03:00;0.93;;;0.40;;
42978;SDS011;28616;44.746;19.678;2023-08-06T08:05:26;1.70;;;0.70;;
42978;SDS011;28616;44.746;19.678;2023-08-06T08:07:52;1.02;;;0.80;;
42978;SDS011;28616;44.746;19.678;2023-08-06T08:10:19;0.80;;;0.60;;
42978;SDS011;28616;44.746;19.678;2023-08-06T08:12:45;0.75;;;0.50;;
42978;SDS011;28616;44.746;19.678;2023-08-06T08:15:12;4.85;;;0.60;;
42978;SDS011;28616;44.746;19.678;2023-08-06T08:17:39;1.08;;;0.60;;
42978;SDS011;28616;44.746;19.678;2023-08-06T08:20:05;3.80;;;0.93;;
42978;SDS011;28616;44.746;19.678;2023-08-06T08:22:31;4.63;;;0.70;;
42978;SDS011;28616;44.746;19.678;2023-08-06T08:24:57;1.52;;;0.60;;
42978;SDS011;28616;44.746;19.678;2023-08-06T08:27:23;2.78;;;0.68;;
42978;SDS011;28616;44.746;19.678;2023-08-06T08:29:51;4.60;;;0.70;;
42978;SDS011;28616;44.746;19.678;2023-08-06T08:32:17;1.52;;;0.50;;
42978;SDS011;28616;44.746;19.678;2023-08-06T08:34:43;3.22;;;0.77;;
42978;SDS011;28616;44.746;19.678;2023-08-06T08:37:09;1.45;;;0.65;;
42978;SDS011;28616;44.746;19.678;2023-08-06T08:39:35;2.22;;;0.68;;
42978;SDS011;28616;44.746;19.678;2023-08-06T08:42:01;1.38;;;0.55;;
42978;SDS011;28616;44.746;19.678;2023-08-06T08:44:28;0.75;;;0.55;;
42978;SDS011;28616;44.746;19.678;2023-08-06T08:46:57;0.60;;;0.40;;
42978;SDS011;28616;44.746;19.678;2023-08-06T08:49:23;1.55;;;0.50;;
42978;SDS011;28616;44.746;19.678;2023-08-06T08:51:50;1.23;;;0.50;;
42978;SDS011;28616;44.746;19.678;2023-08-06T08:54:17;1.75;;;0.43;;
42978;SDS011;28616;44.746;19.678;2023-08-06T08:56:44;0.85;;;0.55;;
42978;SDS011;28616;44.746;19.678;2023-08-06T08:59:10;1.58;;;0.50;;
42978;SDS011;28616;44.746;19.678;2023-08-06T09:01:36;2.33;;;0.60;;
42978;SDS011;28616;44.746;19.678;2023-08-06T09:04:03;2.47;;;0.50;;
42978;SDS011;28616;44.746;19.678;2023-08-06T09:06:30;4.45;;;0.60;;
42978;SDS011;28616;44.746;19.678;2023-08-06T09:09:01;1.13;;;0.52;;
42978;SDS011;28616;44.746;19.678;2023-08-06T09:11:33;5.88;;;0.50;;
42978;SDS011;28616;44.746;19.678;2023-08-06T09:14:06;0.73;;;0.50;;
42978;SDS011;28616;44.746;19.678;2023-08-06T09:16:36;2.15;;;0.30;;
42978;SDS011;28616;44.746;19.678;2023-08-06T09:19:09;0.55;;;0.40;;
42978;SDS011;28616;44.746;19.678;2023-08-06T09:21:37;0.75;;;0.50;;
42978;SDS011;28616;44.746;19.678;2023-08-06T09:24:10;1.95;;;0.45;;
42978;SDS011;28616;44.746;19.678;2023-08-06T09:26:43;0.65;;;0.55;;
42978;SDS011;28616;44.746;19.678;2023-08-06T09:29:09;1.10;;;0.45;;
42978;SDS011;28616;44.746;19.678;2023-08-06T09:31:46;2.88;;;0.40;;
42978;SDS011;28616;44.746;19.678;2023-08-06T09:34:19;0.43;;;0.28;;
42978;SDS011;28616;44.746;19.678;2023-08-06T09:38:20;0.70;;;0.40;;
42978;SDS011;28616;44.746;19.678;2023-08-06T09:40:47;1.70;;;0.32;;
42978;SDS011;28616;44.746;19.678;2023-08-06T09:43:13;0.40;;;0.30;;
42978;SDS011;28616;44.746;19.678;2023-08-06T09:45:39;2.47;;;0.30;;
42978;SDS011;28616;44.746;19.678;2023-08-06T09:48:06;0.38;;;0.20;;
42978;SDS011;28616;44.746;19.678;2023-08-06T09:50:33;2.35;;;0.40;;
42978;SDS011;28616;44.746;19.678;2023-08-06T09:53:03;3.20;;;0.30;;
42978;SDS011;28616;44.746;19.678;2023-08-06T09:55:29;1.85;;;0.45;;
42978;SDS011;28616;44.746;19.678;2023-08-06T09:57:56;0.40;;;0.30;;
42978;SDS011;28616;44.746;19.678;2023-08-06T10:00:22;0.55;;;0.38;;
42978;SDS011;28616;44.746;19.678;2023-08-06T10:02:49;0.70;;;0.30;;
42978;SDS011;28616;44.746;19.678;2023-08-06T10:05:19;0.57;;;0.28;;
42978;SDS011;28616;44.746;19.678;2023-08-06T10:13:19;0.30;;;0.20;;
42978;SDS011;28616;44.746;19.678;2023-08-06T10:15:47;0.30;;;0.20;;
42978;SDS011;28616;44.746;19.678;2023-08-06T10:18:14;0.50;;;0.30;;
42978;SDS011;28616;44.746;19.678;2023-08-06T10:20:46;1.08;;;0.40;;
42978;SDS011;28616;44.746;19.678;2023-08-06T10:23:12;0.50;;;0.38;;
42978;SDS011;28616;44.746;19.678;2023-08-06T10:25:42;3.33;;;0.60;;
42978;SDS011;28616;44.746;19.678;2023-08-06T10:28:09;1.63;;;0.40;;
42978;SDS011;28616;44.746;19.678;2023-08-06T10:30:45;0.55;;;0.20;;
42978;SDS011;28616;44.746;19.678;2023-08-06T10:33:12;1.70;;;0.38;;
42978;SDS011;28616;44.746;19.678;2023-08-06T10:35:45;0.30;;;0.22;;
42978;SDS011;28616;44.746;19.678;2023-08-06T10:38:18;0.68;;;0.40;;
42978;SDS011;28616;44.746;19.678;2023-08-06T10:45:52;0.75;;;0.38;;
42978;SDS011;28616;44.746;19.678;2023-08-06T10:48:31;1.27;;;0.40;;
42978;SDS011;28616;44.746;19.678;2023-08-06T10:51:00;0.35;;;0.30;;
42978;SDS011;28616;44.746;19.678;2023-08-06T10:53:26;1.60;;;0.32;;
42978;SDS011;28616;44.746;19.678;2023-08-06T10:55:52;1.38;;;0.40;;
42978;SDS011;28616;44.746;19.678;2023-08-06T11:00:47;0.70;;;0.30;;
42978;SDS011;28616;44.746;19.678;2023-08-06T11:03:14;0.43;;;0.20;;
42978;SDS011;28616;44.746;19.678;2023-08-06T11:05:40;0.30;;;0.30;;
42978;SDS011;28616;44.746;19.678;2023-08-06T11:08:06;0.85;;;0.40;;
42978;SDS011;28616;44.746;19.678;2023-08-06T11:10:33;1.90;;;0.20;;
42978;SDS011;28616;44.746;19.678;2023-08-06T11:13:05;0.20;;;0.20;;
42978;SDS011;28616;44.746;19.678;2023-08-06T11:15:32;1.33;;;0.25;;
42978;SDS011;28616;44.746;19.678;2023-08-06T11:17:59;1.30;;;0.30;;
42978;SDS011;28616;44.746;19.678;2023-08-06T11:20:25;1.02;;;0.40;;
42978;SDS011;28616;44.746;19.678;2023-08-06T11:22:51;2.03;;;0.85;;
42978;SDS011;28616;44.746;19.678;2023-08-06T11:25:19;0.43;;;0.20;;
42978;SDS011;28616;44.746;19.678;2023-08-06T11:27:47;3.40;;;0.52;;
42978;SDS011;28616;44.746;19.678;2023-08-06T11:30:14;1.63;;;0.60;;
42978;SDS011;28616;44.746;19.678;2023-08-06T11:32:46;2.15;;;1.00;;
42978;SDS011;28616;44.746;19.678;2023-08-06T11:35:13;1.15;;;0.60;;
42978;SDS011;28616;44.746;19.678;2023-08-06T11:37:39;0.80;;;0.45;;
42978;SDS011;28616;44.746;19.678;2023-08-06T11:40:09;1.20;;;0.60;;
42978;SDS011;28616;44.746;19.678;2023-08-06T11:42:39;1.58;;;0.70;;
42978;SDS011;28616;44.746;19.678;2023-08-06T11:45:05;1.38;;;0.50;;
42978;SDS011;28616;44.746;19.678;2023-08-06T11:47:33;0.70;;;0.38;;
42978;SDS011;28616;44.746;19.678;2023-08-06T11:49:59;1.83;;;0.70;;
42978;SDS011;28616;44.746;19.678;2023-08-06T11:52:26;1.35;;;0.60;;
42978;SDS011;28616;44.746;19.678;2023-08-06T11:55:07;1.15;;;0.40;;
42978;SDS011;28616;44.746;19.678;2023-08-06T11:57:39;1.58;;;0.50;;
42978;SDS011;28616;44.746;19.678;2023-08-06T12:00:09;1.05;;;0.40;;
42978;SDS011;28616;44.746;19.678;2023-08-06T12:33:57;2.45;;;0.50;;
42978;SDS011;28616;44.746;19.678;2023-08-06T12:36:23;0.77;;;0.47;;
42978;SDS011;28616;44.746;19.678;2023-08-06T12:38:50;0.65;;;0.43;;
42978;SDS011;28616;44.746;19.678;2023-08-06T12:41:16;1.13;;;0.65;;
42978;SDS011;28616;44.746;19.678;2023-08-06T12:43:42;0.77;;;0.57;;
42978;SDS011;28616;44.746;19.678;2023-08-06T12:46:08;1.75;;;0.47;;
42978;SDS011;28616;44.746;19.678;2023-08-06T12:48:35;1.20;;;0.47;;
42978;SDS011;28616;44.746;19.678;2023-08-06T12:51:01;5.85;;;1.00;;
42978;SDS011;28616;44.746;19.678;2023-08-06T12:53:27;6.63;;;0.80;;
42978;SDS011;28616;44.746;19.678;2023-08-06T12:55:53;1.58;;;0.52;;
42978;SDS011;28616;44.746;19.678;2023-08-06T13:00:51;10.85;;;0.80;;
42978;SDS011;28616;44.746;19.678;2023-08-06T13:03:17;7.97;;;1.60;;
42978;SDS011;28616;44.746;19.678;2023-08-06T13:07:48;25.30;;;3.67;;
42978;SDS011;28616;44.746;19.678;2023-08-06T13:10:14;9.00;;;3.20;;
42978;SDS011;28616;44.746;19.678;2023-08-06T13:12:40;10.80;;;2.85;;
42978;SDS011;28616;44.746;19.678;2023-08-06T13:15:06;10.18;;;2.13;;
42978;SDS011;28616;44.746;19.678;2023-08-06T13:17:32;6.85;;;1.70;;
42978;SDS011;28616;44.746;19.678;2023-08-06T13:19:57;6.18;;;1.33;;
42978;SDS011;28616;44.746;19.678;2023-08-06T13:22:23;8.27;;;1.08;;
42978;SDS011;28616;44.746;19.678;2023-08-06T13:24:49;8.43;;;2.13;;
42978;SDS011;28616;44.746;19.678;2023-08-06T13:27:15;6.60;;;1.40;;
42978;SDS011;28616;44.746;19.678;2023-08-06T13:29:41;8.75;;;1.48;;
42978;SDS011;28616;44.746;19.678;2023-08-06T13:32:07;5.38;;;1.50;;
42978;SDS011;28616;44.746;19.678;2023-08-06T13:34:32;13.10;;;3.08;;
42978;SDS011;28616;44.746;19.678;2023-08-06T13:36:58;7.53;;;1.80;;
42978;SDS011;28616;44.746;19.678;2023-08-06T13:39:24;3.22;;;0.90;;
42978;SDS011;28616;44.746;19.678;2023-08-06T13:41:50;9.38;;;2.90;;
42978;SDS011;28616;44.746;19.678;2023-08-06T13:44:15;6.50;;;1.90;;
42978;SDS011;28616;44.746;19.678;2023-08-06T13:46:41;6.00;;;1.65;;
42978;SDS011;28616;44.746;19.678;2023-08-06T13:49:07;10.30;;;2.10;;
42978;SDS011;28616;44.746;19.678;2023-08-06T13:51:33;6.50;;;1.80;;
42978;SDS011;28616;44.746;19.678;2023-08-06T13:54:00;3.85;;;1.35;;
42978;SDS011;28616;44.746;19.678;2023-08-06T13:56:26;8.55;;;2.10;;
42978;SDS011;28616;44.746;19.678;2023-08-06T13:58:52;6.40;;;2.60;;
42978;SDS011;28616;44.746;19.678;2023-08-06T14:01:18;4.10;;;2.55;;
42978;SDS011;28616;44.746;19.678;2023-08-06T14:03:46;6.13;;;3.03;;
42978;SDS011;28616;44.746;19.678;2023-08-06T14:06:13;5.13;;;3.30;;
42978;SDS011;28616;44.746;19.678;2023-08-06T14:08:38;5.68;;;3.60;;
42978;SDS011;28616;44.746;19.678;2023-08-06T14:11:05;7.53;;;3.55;;
42978;SDS011;28616;44.746;19.678;2023-08-06T14:13:31;4.55;;;3.05;;
42978;SDS011;28616;44.746;19.678;2023-08-06T14:15:57;11.88;;;4.70;;
42978;SDS011;28616;44.746;19.678;2023-08-06T14:18:22;12.10;;;4.07;;
42978;SDS011;28616;44.746;19.678;2023-08-06T14:20:48;6.00;;;2.97;;
42978;SDS011;28616;44.746;19.678;2023-08-06T14:23:14;6.68;;;3.13;;
42978;SDS011;28616;44.746;19.678;2023-08-06T14:25:40;7.43;;;2.78;;
42978;SDS011;28616;44.746;19.678;2023-08-06T14:28:06;7.65;;;0.90;;
42978;SDS011;28616;44.746;19.678;2023-08-06T14:30:32;3.17;;;0.98;;
42978;SDS011;28616;44.746;19.678;2023-08-06T14:32:58;4.53;;;0.80;;
42978;SDS011;28616;44.746;19.678;2023-08-06T14:35:25;2.75;;;0.80;;
42978;SDS011;28616;44.746;19.678;2023-08-06T14:37:51;1.67;;;0.45;;
42978;SDS011;28616;44.746;19.678;2023-08-06T14:40:17;5.05;;;0.70;;
42978;SDS011;28616;44.746;19.678;2023-08-06T14:42:44;3.08;;;0.45;;
42978;SDS011;28616;44.746;19.678;2023-08-06T14:45:10;1.52;;;0.82;;
42978;SDS011;28616;44.746;19.678;2023-08-06T14:47:35;2.10;;;0.52;;
42978;SDS011;28616;44.746;19.678;2023-08-06T14:50:01;0.57;;;0.32;;
42978;SDS011;28616;44.746;19.678;2023-08-06T14:52:27;3.60;;;0.65;;
42978;SDS011;28616;44.746;19.678;2023-08-06T14:54:53;2.65;;;0.60;;
42978;SDS011;28616;44.746;19.678;2023-08-06T14:57:20;4.32;;;0.75;;
42978;SDS011;28616;44.746;19.678;2023-08-06T14:59:47;1.15;;;0.60;;
42978;SDS011;28616;44.746;19.678;2023-08-06T15:02:13;2.00;;;0.63;;
42978;SDS011;28616;44.746;19.678;2023-08-06T15:04:38;2.65;;;0.90;;
42978;SDS011;28616;44.746;19.678;2023-08-06T15:07:04;1.52;;;0.70;;
42978;SDS011;28616;44.746;19.678;2023-08-06T15:09:30;2.13;;;0.70;;
42978;SDS011;28616;44.746;19.678;2023-08-06T15:11:55;1.45;;;0.60;;
42978;SDS011;28616;44.746;19.678;2023-08-06T15:14:21;2.95;;;0.90;;
42978;SDS011;28616;44.746;19.678;2023-08-06T15:16:47;1.15;;;0.50;;
42978;SDS011;28616;44.746;19.678;2023-08-06T15:19:13;1.30;;;0.70;;
42978;SDS011;28616;44.746;19.678;2023-08-06T15:21:39;1.13;;;0.75;;
42978;SDS011;28616;44.746;19.678;2023-08-06T15:24:05;1.70;;;0.90;;
42978;SDS011;28616;44.746;19.678;2023-08-06T15:26:31;3.83;;;0.45;;
42978;SDS011;28616;44.746;19.678;2023-08-06T15:28:59;0.63;;;0.50;;